createdAt,value
2023-08-29T00:00:10.530Z,95922.81
2023-08-29T00:05:14.879Z,95928.56
2023-08-29T00:10:17.790Z,95930.50
2023-08-29T00:15:20.708Z,95922.34
2023-08-29T00:20:24.938Z,95917.19
2023-08-29T00:25:27.815Z,95928.84
2023-08-29T00:30:30.746Z,95923.75
2023-08-29T00:35:34.975Z,95929.97
2023-08-29T00:40:37.847Z,95929.19
2023-08-29T00:45:41.704Z,95925.66
2023-08-29T00:50:45.931Z,95933.03
2023-08-29T00:55:50.771Z,95918.59
2023-08-29T01:00:53.986Z,95938.75
2023-08-29T01:05:58.199Z,95937.94
2023-08-29T01:11:06.274Z,95925.44
2023-08-29T01:16:11.233Z,95929.28
2023-08-29T01:21:22.736Z,95935.84
2023-08-29T01:26:27.522Z,95932.00
2023-08-29T01:31:31.614Z,95943.19
2023-08-29T01:36:40.176Z,95939.66
2023-08-29T01:41:44.361Z,95935.31
2023-08-29T01:46:47.240Z,95932.94
2023-08-29T01:51:50.536Z,95935.66
2023-08-29T01:56:55.135Z,95939.97
2023-08-29T02:01:58.674Z,95929.09
2023-08-29T02:07:01.659Z,95928.56
2023-08-29T02:12:06.367Z,95926.19
2023-08-29T02:17:09.258Z,95928.06
2023-08-29T02:22:13.166Z,95924.53
2023-08-29T02:27:17.424Z,95913.66
2023-08-29T02:32:21.481Z,95922.16
2023-08-29T02:37:24.360Z,95915.06
2023-08-29T02:42:28.644Z,95908.03
2023-08-29T02:47:31.661Z,95909.97
2023-08-29T02:52:34.681Z,95912.69
2023-08-29T02:57:39.243Z,95901.28
2023-08-29T03:02:43.304Z,95906.72
2023-08-29T03:07:46.421Z,95893.44
2023-08-29T03:12:52.305Z,95900.78
2023-08-29T03:17:55.216Z,95892.94
2023-08-29T03:22:58.118Z,95884.78
2023-08-29T03:28:02.309Z,95876.63
2023-08-29T03:33:05.574Z,95890.84
2023-08-29T03:38:08.821Z,95887.28
2023-08-29T03:43:13.142Z,95898.66
2023-08-29T03:48:28.342Z,95894.16
2023-08-29T03:53:31.861Z,95890.31
2023-08-29T03:58:36.622Z,95894.44
2023-08-29T04:03:40.176Z,95897.97
2023-08-29T04:08:43.220Z,95888.81
2023-08-29T04:13:47.445Z,95901.00
2023-08-29T04:18:51.249Z,95905.44
2023-08-29T04:23:55.652Z,95911.66
2023-08-29T04:28:59.880Z,95913.91
2023-08-29T04:34:02.854Z,95908.66
2023-08-29T04:39:05.958Z,95919.03
2023-08-29T04:44:10.306Z,95922.84
2023-08-29T04:49:13.180Z,95927.78
2023-08-29T04:54:16.045Z,95931.31
2023-08-29T04:59:20.317Z,95924.75
2023-08-29T05:04:23.243Z,95927.47
2023-08-29T05:09:26.195Z,95918.50
2023-08-29T05:14:30.461Z,95918.81
2023-08-29T05:19:33.403Z,95925.34
2023-08-29T05:24:36.257Z,95925.06
2023-08-29T05:29:40.487Z,95921.03
2023-08-29T05:34:43.375Z,95922.63
2023-08-29T05:39:46.277Z,95927.59
2023-08-29T05:44:50.505Z,95927.09
2023-08-29T05:49:53.394Z,95925.97
2023-08-29T05:54:57.215Z,95932.53
2023-08-29T06:00:01.472Z,95929.56
2023-08-29T06:05:07.527Z,95926.84
2023-08-29T06:10:11.143Z,95940.44
2023-08-29T06:15:15.490Z,95934.22
2023-08-29T06:20:18.598Z,95938.84
2023-08-29T06:25:21.679Z,95937.22
2023-08-29T06:30:25.921Z,95952.72
2023-08-29T06:35:28.775Z,95949.41
2023-08-29T06:40:31.662Z,95952.72
2023-08-29T06:45:35.927Z,95949.81
2023-08-29T06:50:38.845Z,95949.81
2023-08-29T06:55:41.738Z,95944.38
2023-08-29T07:00:45.987Z,95952.84
2023-08-29T07:05:49.135Z,95959.34
2023-08-29T07:10:52.118Z,95957.75
2023-08-29T07:15:56.414Z,95956.97
2023-08-29T07:21:00.151Z,95960.19
2023-08-29T07:26:03.092Z,95961.59
2023-08-29T07:31:07.631Z,95963.19
2023-08-29T07:36:11.179Z,95959.34
2023-08-29T07:41:15.506Z,95976.78
2023-08-29T07:46:19.795Z,95975.66
2023-08-29T07:51:22.699Z,95971.88
2023-08-29T07:56:25.545Z,95978.09
2023-08-29T08:01:29.804Z,95985.75
2023-08-29T08:06:32.834Z,95985.75
2023-08-29T08:11:35.717Z,95990.38
2023-08-29T08:16:40.087Z,95991.97
2023-08-29T08:21:42.970Z,95992.78
2023-08-29T08:26:45.848Z,95999.34
2023-08-29T08:31:50.105Z,96008.59
2023-08-29T08:36:53.290Z,96005.06
2023-08-29T08:41:56.171Z,96000.75
2023-08-29T08:47:00.975Z,96003.47
2023-08-29T08:52:06.396Z,96013.50
2023-08-29T08:57:11.882Z,96016.75
2023-08-29T09:02:17.444Z,96018.66
2023-08-29T09:07:20.322Z,96018.94
2023-08-29T09:12:23.198Z,96018.94
2023-08-29T09:17:27.464Z,96021.38
2023-08-29T09:22:30.552Z,96026.53
2023-08-29T09:27:40.521Z,96022.78
2023-08-29T09:32:45.865Z,96029.31
2023-08-29T09:37:53.273Z,96036.66
2023-08-29T09:42:57.047Z,96031.22
2023-08-29T09:48:04.358Z,96025.78
2023-08-29T09:53:07.611Z,96029.59
2023-08-29T09:58:11.285Z,96022.56
2023-08-29T10:03:16.412Z,96019.56
2023-08-29T10:08:22.001Z,96021.97
2023-08-29T10:13:25.990Z,96010.28
2023-08-29T10:18:31.259Z,95996.72
2023-08-29T10:23:34.996Z,95995.88
2023-08-29T10:28:38.832Z,95988.84
2023-08-29T10:33:43.114Z,95977.97
2023-08-29T10:38:48.785Z,95980.69
2023-08-29T10:43:54.687Z,95981.81
2023-08-29T10:49:00.709Z,95989.97
2023-08-29T10:54:06.793Z,95979.91
2023-08-29T10:59:29.257Z,95984.22
2023-08-29T11:04:45.537Z,95974.47
2023-08-29T11:10:16.864Z,95964.09
2023-08-29T11:15:21.372Z,95973.06
2023-08-29T11:20:25.784Z,95967.94
2023-08-29T11:25:28.732Z,95968.41
2023-08-29T11:30:43.341Z,95976.88
2023-08-29T11:35:51.670Z,95974.16
2023-08-29T11:40:56.188Z,95977.69
2023-08-29T11:46:19.889Z,95977.69
2023-08-29T11:51:24.415Z,95977.69
2023-08-29T11:56:29.694Z,95973.06
2023-08-29T12:01:39.310Z,95973.06
2023-08-29T12:06:43.920Z,95970.84
2023-08-29T12:11:46.793Z,95968.13
2023-08-29T12:16:54.304Z,95978.19
2023-08-29T12:21:58.531Z,95977.06
2023-08-29T12:27:03.686Z,95979.00
2023-08-29T12:32:08.116Z,95979.78
2023-08-29T12:37:12.899Z,95970.03
2023-08-29T12:42:15.757Z,95960.75
2023-08-29T12:47:18.612Z,95956.44
2023-08-29T12:52:22.796Z,95956.16
2023-08-29T12:57:25.812Z,95953.44
2023-08-29T13:02:28.775Z,95942.06
2023-08-29T13:07:33.062Z,95939.84
2023-08-29T13:12:37.346Z,95937.41
2023-08-29T13:17:40.845Z,95939.03
2023-08-29T13:22:46.040Z,95933.59
2023-08-29T13:27:50.368Z,95927.06
2023-08-29T13:32:53.394Z,95926.25
2023-08-29T13:37:57.628Z,95931.41
2023-08-29T13:43:00.621Z,95934.91
2023-08-29T13:48:04.752Z,95925.13
2023-08-29T13:53:10.968Z,95912.88
2023-08-29T13:58:13.840Z,95923.72
2023-08-29T14:03:33.389Z,95927.28
2023-08-29T14:08:42.963Z,95928.06
2023-08-29T14:13:45.858Z,95932.72
2023-08-29T14:18:48.779Z,95925.34
2023-08-29T14:23:52.972Z,95928.88
2023-08-29T14:28:55.852Z,95932.41
2023-08-29T14:33:58.733Z,95932.41
2023-08-29T14:39:03.027Z,95934.31
2023-08-29T14:44:07.141Z,95930.00
2023-08-29T14:49:10.083Z,95933.19
2023-08-29T14:54:14.357Z,95935.44
2023-08-29T14:59:17.235Z,95936.22
2023-08-29T15:04:20.071Z,95933.50
2023-08-29T15:09:25.050Z,95934.31
2023-08-29T15:14:28.945Z,95938.16
2023-08-29T15:19:31.959Z,95959.88
2023-08-29T15:24:36.263Z,95968.03
2023-08-29T15:29:39.157Z,95982.75
2023-08-29T15:34:42.013Z,95973.28
2023-08-29T15:39:47.507Z,95976.78
2023-08-29T15:44:51.811Z,95976.28
2023-08-29T15:49:54.704Z,95967.31
2023-08-29T15:54:58.898Z,95969.75
2023-08-29T16:00:10.118Z,95970.03
2023-08-29T16:05:13.219Z,95957.56
2023-08-29T16:10:17.523Z,95958.16
2023-08-29T16:15:20.414Z,95962.50
2023-08-29T16:20:23.268Z,95959.78
2023-08-29T16:25:28.634Z,95959.78
2023-08-29T16:30:32.409Z,95955.44
2023-08-29T16:35:35.471Z,95955.44
2023-08-29T16:40:39.659Z,95958.47
2023-08-29T16:45:42.533Z,95960.31
2023-08-29T16:50:46.378Z,95955.22
2023-08-29T16:55:51.106Z,95957.41
2023-08-29T17:00:53.992Z,95960.66
2023-08-29T17:05:57.334Z,95956.28
2023-08-29T17:11:01.531Z,95956.63
2023-08-29T17:16:05.851Z,95958.50
2023-08-29T17:21:08.794Z,95962.34
2023-08-29T17:26:13.104Z,95954.97
2023-08-29T17:31:16.056Z,95965.84
2023-08-29T17:36:18.978Z,95962.84
2023-08-29T17:41:24.035Z,95961.53
2023-08-29T17:46:28.770Z,95966.16
2023-08-29T17:51:31.837Z,95966.16
2023-08-29T17:56:36.161Z,95959.09
2023-08-29T18:01:39.172Z,95962.63
2023-08-29T18:06:42.145Z,95959.09
2023-08-29T18:11:46.397Z,95957.50
2023-08-29T18:16:50.876Z,95958.31
2023-08-29T18:21:53.759Z,95954.28
2023-08-29T18:26:58.043Z,95969.75
2023-08-29T18:32:00.910Z,95977.63
2023-08-29T18:37:04.576Z,95983.34
2023-08-29T18:42:10.133Z,95987.16
2023-08-29T18:47:13.405Z,95984.16
2023-08-29T18:52:17.204Z,95981.72
2023-08-29T18:57:22.128Z,95987.16
2023-08-29T19:02:25.513Z,95990.16
2023-08-29T19:07:29.244Z,95990.50
2023-08-29T19:12:33.468Z,95992.41
2023-08-29T19:17:36.624Z,95990.78
2023-08-29T19:22:39.534Z,95998.94
2023-08-29T19:27:43.736Z,95992.19
2023-08-29T19:32:46.722Z,95994.09
2023-08-29T19:37:50.300Z,95989.75
2023-08-29T19:42:54.541Z,95991.69
2023-08-29T19:47:57.469Z,95988.97
2023-08-29T19:53:00.405Z,95992.47
2023-08-29T19:58:05.335Z,95987.03
2023-08-29T20:03:08.482Z,95995.81
2023-08-29T20:08:14.772Z,95988.16
2023-08-29T20:13:18.983Z,95988.44
2023-08-29T20:18:21.924Z,95989.25
2023-08-29T20:23:24.864Z,95987.66
2023-08-29T20:28:29.049Z,95981.41
2023-08-29T20:33:32.677Z,95982.50
2023-08-29T20:38:35.617Z,95976.25
2023-08-29T20:43:39.929Z,95972.75
2023-08-29T20:48:42.885Z,95973.84
2023-08-29T20:53:45.831Z,95975.47
2023-08-29T20:58:50.015Z,95973.03
2023-08-29T21:03:53.155Z,95976.56
2023-08-29T21:08:57.907Z,95971.94
2023-08-29T21:14:02.210Z,95974.94
2023-08-29T21:19:05.206Z,95966.00
2023-08-29T21:24:08.800Z,95960.56
2023-08-29T21:29:13.035Z,95961.69
2023-08-29T21:34:15.915Z,95954.31
2023-08-29T21:39:18.752Z,95955.72
2023-08-29T21:44:23.001Z,95961.97
2023-08-29T21:49:25.856Z,95950.28
2023-08-29T21:54:28.735Z,95947.84
2023-08-29T21:59:33.073Z,95940.03
2023-08-29T22:04:35.973Z,95934.28
2023-08-29T22:09:38.834Z,95929.97
2023-08-29T22:14:43.071Z,95916.38
2023-08-29T22:19:45.916Z,95930.28
2023-08-29T22:24:48.789Z,95931.88
2023-08-29T22:29:53.077Z,95931.06
2023-08-29T22:34:55.966Z,95922.13
2023-08-29T22:39:59.375Z,95920.50
2023-08-29T22:45:04.227Z,95915.38
2023-08-29T22:50:08.465Z,95916.16
2023-08-29T22:55:11.581Z,95913.75
2023-08-29T23:00:16.965Z,95915.66
2023-08-29T23:05:20.135Z,95907.53
2023-08-29T23:10:23.075Z,95909.41
2023-08-29T23:15:27.302Z,95911.34
2023-08-29T23:20:30.242Z,95909.41
2023-08-29T23:25:34.108Z,95908.63
2023-08-29T23:30:39.078Z,95915.47
2023-08-29T23:35:41.957Z,95906.22
2023-08-29T23:40:45.039Z,95902.69
2023-08-29T23:45:50.810Z,95912.75
2023-08-29T23:51:03.990Z,95909.22
2023-08-29T23:56:08.188Z,95903.00
